Elkhart Lake, Wisconsin
Current Conditions -  °F | °C
As of 6:53 AM on Sunday 21 Dec 2014 (Local Time) from KSBM Reporting Station
Overcast Overcast  
Wind Chill: -4°   Ceiling: 900
Heat Index: -1°   Visibility: 7mi
Dew Point: -3°   Wind: 7mph
Humidity: 85%   Direction: 170°S
Pressure: 30.16"   Gusts: NA
Location:  43.83°N, 88.02°W
Report Text: KSBM 211253Z AUTO 17006KT 7SM OVC009 M01/M03 A3016 RMK AO2 SLP224 T10061028
Loading
Personal Weather Stations






























Interactive Weather Map New forecast layout! Learn more

10-Day Weather Forecast

Advertisements
Track Severe Weather on mobile